Lake Wylie, South Carolina
Current Conditions -  °F | °C
As of 1:54 AM on Thursday 23 Oct 2014 (Local Time) from KAKH Reporting Station
Clear Clear  
Wind Chill: 47°   Ceiling: Unl
Heat Index: 47°   Visibility: 10mi
Dew Point: 37°   Wind: 3mph
Humidity: 68%   Direction: 340°NNW
Pressure: 30.09"   Gusts: NA
Location:  35.1039°N, 81.2451°W
Report Text: KAKH 230554Z AUTO 34003KT 10SM CLR 08/03 A3009 RMK AO2 SLP189 T00830028 10122 20072 58005
Loading
Personal Weather Stations






























Interactive Weather Map
Tropical Storm Tracking
New forecast layout! Learn more

10-Day Weather Forecast

Advertisements
Track Severe Weather on mobile